createdAt,value
2019-03-13T00:01:58.448Z,3.73
2019-03-13T00:04:29.162Z,4.10
2019-03-13T00:06:59.539Z,3.90
2019-03-13T00:09:29.781Z,4.33
2019-03-13T00:12:00.052Z,3.53
2019-03-13T00:14:30.476Z,3.27
2019-03-13T00:17:00.734Z,4.03
2019-03-13T00:19:32.305Z,3.03
2019-03-13T00:22:03.147Z,3.87
2019-03-13T00:24:33.483Z,3.23
2019-03-13T00:27:03.970Z,3.40
2019-03-13T00:29:34.276Z,4.07
2019-03-13T00:32:06.278Z,4.10
2019-03-13T00:34:36.885Z,3.80
2019-03-13T00:37:07.447Z,4.30
2019-03-13T00:39:37.894Z,3.70
2019-03-13T00:42:09.849Z,3.87
2019-03-13T00:44:40.095Z,3.67
2019-03-13T00:47:10.455Z,3.70
2019-03-13T00:49:41.056Z,3.87
2019-03-13T00:52:11.444Z,4.00
2019-03-13T00:54:41.737Z,3.80
2019-03-13T00:57:12.251Z,3.20
2019-03-13T00:59:42.574Z,4.13
2019-03-13T01:02:30.415Z,3.97
2019-03-13T01:05:22.919Z,4.50
2019-03-13T01:07:53.250Z,3.50
2019-03-13T01:10:23.538Z,4.00
2019-03-13T01:12:54.361Z,3.57
2019-03-13T01:15:24.852Z,3.77
2019-03-13T01:17:55.116Z,3.70
2019-03-13T01:20:25.370Z,3.37
2019-03-13T01:22:55.718Z,3.33
2019-03-13T01:25:27.774Z,4.13
2019-03-13T01:27:58.071Z,3.70
2019-03-13T01:30:30.280Z,3.83
2019-03-13T01:33:06.700Z,3.27
2019-03-13T01:35:45.195Z,3.33
2019-03-13T01:38:15.618Z,3.90
2019-03-13T01:40:45.866Z,4.17
2019-03-13T01:43:16.195Z,3.80
2019-03-13T01:45:46.578Z,3.50
2019-03-13T01:48:16.999Z,3.70
2019-03-13T01:50:47.266Z,4.13
2019-03-13T01:53:17.501Z,3.57
2019-03-13T01:55:47.766Z,3.27
2019-03-13T01:58:18.087Z,3.27
2019-03-13T02:00:48.436Z,3.33
2019-03-13T02:03:18.735Z,3.20
2019-03-13T02:05:51.442Z,3.67
2019-03-13T02:08:21.853Z,3.67
2019-03-13T02:10:52.125Z,3.27
2019-03-13T02:13:22.398Z,3.77
2019-03-13T02:15:54.112Z,3.30
2019-03-13T02:18:24.392Z,3.53
2019-03-13T02:20:54.640Z,3.00
2019-03-13T02:23:24.921Z,2.80
2019-03-13T02:25:56.491Z,3.10
2019-03-13T02:28:26.881Z,3.47
2019-03-13T02:30:57.147Z,3.30
2019-03-13T02:33:27.393Z,2.67
2019-03-13T02:35:57.765Z,3.03
2019-03-13T02:38:28.171Z,3.10
2019-03-13T02:40:58.524Z,2.50
2019-03-13T02:43:28.969Z,2.60
2019-03-13T02:46:00.986Z,2.27
2019-03-13T02:48:31.217Z,2.20
2019-03-13T02:51:01.509Z,1.83
2019-03-13T02:53:33.345Z,2.13
2019-03-13T02:56:03.629Z,1.77
2019-03-13T02:58:34.815Z,2.13
2019-03-13T03:01:27.387Z,1.70
2019-03-13T03:03:59.893Z,2.07
2019-03-13T03:06:30.504Z,1.63
2019-03-13T03:09:00.737Z,1.67
2019-03-13T03:11:33.176Z,1.60
2019-03-13T03:14:03.613Z,1.60
2019-03-13T03:16:33.994Z,2.03
2019-03-13T03:19:04.563Z,1.93
2019-03-13T03:21:35.823Z,1.90
2019-03-13T03:24:06.263Z,1.57
2019-03-13T03:26:36.616Z,1.93
2019-03-13T03:29:06.967Z,1.77
2019-03-13T03:31:38.642Z,1.63
2019-03-13T03:34:10.357Z,1.87
2019-03-13T03:36:41.159Z,1.43
2019-03-13T03:39:11.470Z,1.40
2019-03-13T03:41:41.758Z,1.87
2019-03-13T03:44:12.805Z,1.73
2019-03-13T03:46:43.087Z,2.00
2019-03-13T03:49:13.476Z,1.80
2019-03-13T03:51:43.752Z,2.30
2019-03-13T03:54:14.941Z,1.90
2019-03-13T03:56:46.267Z,2.10
2019-03-13T03:59:16.810Z,1.80
2019-03-13T04:01:47.175Z,2.03
2019-03-13T04:04:17.512Z,2.03
2019-03-13T04:06:48.365Z,2.13
2019-03-13T04:09:21.227Z,2.70
2019-03-13T04:11:51.612Z,2.67
2019-03-13T04:14:21.937Z,2.53
2019-03-13T04:16:52.187Z,2.20
2019-03-13T04:19:22.559Z,2.90
2019-03-13T04:21:55.099Z,2.60
2019-03-13T04:24:25.541Z,2.77
2019-03-13T04:26:57.445Z,2.73
2019-03-13T04:29:27.704Z,2.67
2019-03-13T04:31:58.114Z,2.63
2019-03-13T04:34:28.385Z,2.30
2019-03-13T04:36:58.769Z,2.77
2019-03-13T04:39:29.223Z,2.63
2019-03-13T04:41:59.530Z,2.13
2019-03-13T04:44:29.915Z,2.87
2019-03-13T04:47:00.218Z,2.93
2019-03-13T04:49:30.723Z,2.13
2019-03-13T04:52:03.342Z,2.97
2019-03-13T04:54:33.712Z,3.10
2019-03-13T04:57:03.946Z,3.50
2019-03-13T04:59:34.338Z,3.50
2019-03-13T05:02:04.656Z,3.23
2019-03-13T05:04:34.988Z,2.90
2019-03-13T05:07:05.499Z,2.90
2019-03-13T05:09:38.467Z,2.43
2019-03-13T05:12:08.790Z,2.83
2019-03-13T05:14:39.426Z,2.10
2019-03-13T05:17:12.453Z,1.67
2019-03-13T05:19:42.325Z,1.70
2019-03-13T05:22:12.697Z,1.60
2019-03-13T05:24:44.476Z,1.70
2019-03-13T05:27:14.866Z,1.93
2019-03-13T05:29:45.105Z,2.03
2019-03-13T05:32:15.509Z,2.10
2019-03-13T05:34:45.959Z,1.93
2019-03-13T05:37:16.417Z,1.70
2019-03-13T05:39:46.810Z,2.30
2019-03-13T05:42:19.500Z,2.63
2019-03-13T05:44:50.877Z,2.83
2019-03-13T05:47:22.984Z,2.10
2019-03-13T05:49:54.929Z,1.90
2019-03-13T05:52:25.147Z,2.03
2019-03-13T05:54:55.609Z,2.10
2019-03-13T05:57:25.892Z,2.50
2019-03-13T05:59:57.091Z,4.40
2019-03-13T06:02:27.417Z,2.50
2019-03-13T06:04:57.729Z,2.80
2019-03-13T06:07:28.605Z,2.70
2019-03-13T06:10:00.988Z,2.50
2019-03-13T06:12:31.893Z,3.00
2019-03-13T06:15:05.313Z,2.20
2019-03-13T06:17:36.709Z,2.93
2019-03-13T06:20:10.420Z,2.30
2019-03-13T06:22:39.849Z,2.87
2019-03-13T06:25:11.542Z,2.50
2019-03-13T06:27:46.645Z,2.83
2019-03-13T06:30:17.445Z,2.57
2019-03-13T06:32:50.172Z,2.07
2019-03-13T06:35:23.574Z,2.37
2019-03-13T06:37:52.553Z,2.63
2019-03-13T06:40:23.225Z,2.00
2019-03-13T06:42:53.459Z,2.07
2019-03-13T06:45:23.838Z,2.13
2019-03-13T06:47:57.619Z,2.17
2019-03-13T06:50:29.883Z,2.37
2019-03-13T06:53:01.288Z,1.80
2019-03-13T06:55:31.968Z,2.00
2019-03-13T06:58:02.471Z,2.37
2019-03-13T07:00:57.907Z,2.43
2019-03-13T07:03:40.263Z,2.50
2019-03-13T07:06:35.412Z,2.00
2019-03-13T07:09:26.185Z,1.80
2019-03-13T07:12:22.569Z,2.03
2019-03-13T07:15:03.661Z,2.10
2019-03-13T07:17:53.343Z,2.30
2019-03-13T07:20:32.370Z,2.07
2019-03-13T07:23:28.165Z,2.03
2019-03-13T07:26:08.872Z,2.20
2019-03-13T07:29:11.669Z,2.07
2019-03-13T07:31:45.887Z,1.87
2019-03-13T07:34:31.880Z,1.50
2019-03-13T07:37:39.556Z,1.50
2019-03-13T07:40:29.631Z,1.60
2019-03-13T07:43:34.957Z,1.43
2019-03-13T07:46:31.405Z,1.40
2019-03-13T07:49:32.540Z,1.20
2019-03-13T07:52:32.590Z,1.80
2019-03-13T07:55:34.902Z,1.37
2019-03-13T07:58:37.886Z,1.47
2019-03-13T08:01:23.083Z,1.90
2019-03-13T08:04:18.568Z,1.40
2019-03-13T08:07:20.119Z,1.10
2019-03-13T08:10:14.725Z,1.23
2019-03-13T08:13:12.898Z,1.00
2019-03-13T08:16:19.119Z,1.30
2019-03-13T08:19:10.141Z,1.20
2019-03-13T08:22:05.862Z,1.40
2019-03-13T08:24:54.223Z,0.93
2019-03-13T08:27:42.117Z,1.30
2019-03-13T08:30:33.901Z,1.10
2019-03-13T08:33:09.505Z,1.23
2019-03-13T08:35:57.554Z,1.10
2019-03-13T08:38:38.741Z,1.17
2019-03-13T08:41:15.240Z,1.00
2019-03-13T08:44:17.464Z,1.10
2019-03-13T08:47:21.559Z,1.50
2019-03-13T08:50:05.421Z,1.20
2019-03-13T08:52:47.603Z,1.10
2019-03-13T08:55:39.476Z,1.00
2019-03-13T08:58:32.591Z,1.17
2019-03-13T09:01:29.036Z,1.10
2019-03-13T09:04:08.512Z,1.20
2019-03-13T09:07:18.523Z,1.40
2019-03-13T09:10:07.677Z,0.83
2019-03-13T09:13:03.518Z,1.20
2019-03-13T09:15:51.811Z,0.90
2019-03-13T09:18:43.722Z,1.50
2019-03-13T09:21:33.414Z,1.20
2019-03-13T09:24:21.731Z,1.10
2019-03-13T09:27:01.497Z,1.07
2019-03-13T09:29:47.641Z,0.97
2019-03-13T09:32:46.756Z,1.30
2019-03-13T09:35:45.065Z,1.50
2019-03-13T09:38:44.134Z,1.27
2019-03-13T09:41:36.628Z,1.10
2019-03-13T09:44:28.670Z,1.20
2019-03-13T09:47:17.926Z,1.23
2019-03-13T09:50:13.209Z,1.10
2019-03-13T09:53:09.246Z,1.10
2019-03-13T09:56:00.222Z,0.97
2019-03-13T09:58:39.621Z,1.00
2019-03-13T10:01:24.800Z,1.20
2019-03-13T10:04:30.202Z,1.10
2019-03-13T10:07:19.648Z,1.20
2019-03-13T10:10:24.026Z,1.50
2019-03-13T10:13:12.563Z,1.10
2019-03-13T10:16:11.946Z,1.13
2019-03-13T10:19:04.526Z,1.27
2019-03-13T10:21:56.665Z,1.00
2019-03-13T10:24:36.346Z,1.20
2019-03-13T10:27:23.188Z,1.10
2019-03-13T10:30:02.852Z,1.10
2019-03-13T10:32:59.262Z,0.87
2019-03-13T10:35:49.022Z,1.17
2019-03-13T10:38:26.459Z,1.30
2019-03-13T10:41:03.196Z,1.20
2019-03-13T10:43:51.616Z,1.00
2019-03-13T10:46:50.618Z,1.43
2019-03-13T10:49:28.449Z,1.00
2019-03-13T10:52:10.553Z,1.03
2019-03-13T10:55:03.947Z,1.03
2019-03-13T10:58:03.538Z,1.20
2019-03-13T11:00:51.655Z,1.30
2019-03-13T11:03:43.949Z,1.10
2019-03-13T11:06:54.431Z,1.07
2019-03-13T11:09:19.561Z,1.20
2019-03-13T11:12:18.332Z,1.20
2019-03-13T11:15:23.287Z,1.13
2019-03-13T11:18:18.771Z,1.50
2019-03-13T11:21:08.221Z,1.00
2019-03-13T11:24:01.166Z,1.20
2019-03-13T11:26:47.911Z,1.20
2019-03-13T11:29:52.837Z,1.20
2019-03-13T11:32:48.487Z,1.20
2019-03-13T11:35:34.969Z,1.23
2019-03-13T11:38:30.416Z,1.43
2019-03-13T11:41:19.084Z,1.10
2019-03-13T11:44:04.512Z,1.23
2019-03-13T11:46:52.781Z,1.40
2019-03-13T11:49:48.016Z,1.40
2019-03-13T11:52:36.271Z,1.20
2019-03-13T11:55:15.708Z,1.40
2019-03-13T11:58:10.461Z,1.30
2019-03-13T12:01:00.445Z,1.30
2019-03-13T12:04:05.415Z,1.20
2019-03-13T12:06:51.518Z,1.20
2019-03-13T12:09:40.143Z,1.20
2019-03-13T12:12:31.284Z,1.37
2019-03-13T12:15:18.548Z,0.90
2019-03-13T12:18:08.857Z,1.53
2019-03-13T12:21:10.209Z,1.13
2019-03-13T12:23:59.598Z,1.20
2019-03-13T12:26:50.447Z,1.40
2019-03-13T12:29:36.570Z,1.00
2019-03-13T12:32:40.402Z,1.47
2019-03-13T12:35:23.939Z,1.50
2019-03-13T12:38:34.891Z,1.50
2019-03-13T12:41:31.449Z,1.23
2019-03-13T12:44:18.939Z,1.30
2019-03-13T12:47:01.375Z,1.30
2019-03-13T12:49:49.550Z,1.20
2019-03-13T12:52:38.679Z,0.83
2019-03-13T12:55:19.869Z,1.30
2019-03-13T12:58:12.342Z,1.57
2019-03-13T13:01:11.828Z,1.33
2019-03-13T13:04:16.437Z,1.20
2019-03-13T13:07:20.847Z,1.43
2019-03-13T13:10:22.174Z,1.57
2019-03-13T13:13:09.656Z,1.70
2019-03-13T13:16:06.534Z,1.20
2019-03-13T13:18:49.241Z,2.07
2019-03-13T13:21:20.113Z,1.60
2019-03-13T13:23:50.897Z,1.13
2019-03-13T13:26:21.094Z,1.40
2019-03-13T13:28:51.502Z,1.50
2019-03-13T13:31:22.979Z,1.57
2019-03-13T13:33:53.228Z,1.40
2019-03-13T13:36:26.839Z,1.43
2019-03-13T13:38:56.700Z,1.47
2019-03-13T13:41:27.622Z,1.30
2019-03-13T13:43:58.164Z,1.97
2019-03-13T13:46:33.417Z,1.27
2019-03-13T13:49:05.024Z,1.03
2019-03-13T13:51:37.380Z,1.20
2019-03-13T13:54:07.669Z,1.40
2019-03-13T13:56:39.004Z,1.70
2019-03-13T13:59:11.278Z,1.30
2019-03-13T14:01:41.483Z,1.20
2019-03-13T14:04:11.950Z,1.40
2019-03-13T14:06:42.263Z,1.40
2019-03-13T14:09:12.528Z,2.10
2019-03-13T14:11:43.342Z,1.50
2019-03-13T14:14:14.030Z,1.00
2019-03-13T14:16:44.669Z,1.20
2019-03-13T14:19:14.969Z,1.40
2019-03-13T14:21:45.229Z,1.90
2019-03-13T14:24:17.507Z,1.03
2019-03-13T14:26:47.892Z,1.30
2019-03-13T14:29:19.507Z,1.20
2019-03-13T14:31:50.633Z,1.10
2019-03-13T14:34:30.802Z,1.20
2019-03-13T14:37:00.384Z,1.50
2019-03-13T14:39:30.642Z,1.20
2019-03-13T14:42:16.434Z,1.27
2019-03-13T14:44:46.814Z,1.10
2019-03-13T14:47:27.660Z,1.00
2019-03-13T14:53:27.963Z,1.60
2019-03-13T14:55:58.373Z,1.40
2019-03-13T14:58:28.786Z,1.00
2019-03-13T15:00:59.436Z,1.40
2019-03-13T15:03:29.736Z,1.47
2019-03-13T15:06:01.418Z,1.33
2019-03-13T15:08:31.942Z,1.30
2019-03-13T15:11:05.564Z,1.40
2019-03-13T15:13:36.111Z,1.40
2019-03-13T15:16:07.938Z,1.60
2019-03-13T15:18:44.918Z,1.30
2019-03-13T15:21:24.573Z,1.30
2019-03-13T15:24:04.125Z,1.13
2019-03-13T15:26:35.603Z,1.40
2019-03-13T15:29:07.918Z,1.30
2019-03-13T15:31:39.855Z,1.23
2019-03-13T15:34:10.118Z,1.20
2019-03-13T15:36:40.478Z,1.37
2019-03-13T15:39:10.907Z,1.67
2019-03-13T15:41:41.872Z,2.03
2019-03-13T15:44:14.482Z,1.33
2019-03-13T15:46:44.993Z,1.07
2019-03-13T15:49:16.829Z,1.30
2019-03-13T15:51:47.756Z,1.50
2019-03-13T15:54:18.933Z,1.67
2019-03-13T15:56:49.233Z,1.20
2019-03-13T15:59:19.562Z,1.50
2019-03-13T16:01:49.911Z,1.63
2019-03-13T16:04:20.142Z,1.63
2019-03-13T16:06:50.975Z,1.40
2019-03-13T16:09:21.255Z,1.20
2019-03-13T16:11:51.586Z,1.47
2019-03-13T16:14:23.480Z,1.40
2019-03-13T16:16:53.943Z,1.30
2019-03-13T16:19:24.417Z,1.20
2019-03-13T16:21:54.749Z,1.33
2019-03-13T16:24:26.465Z,1.37
2019-03-13T16:26:56.745Z,1.23
2019-03-13T16:29:27.168Z,1.60
2019-03-13T16:31:58.281Z,1.43
2019-03-13T16:34:28.637Z,1.23
2019-03-13T16:36:58.941Z,1.50
2019-03-13T16:39:29.403Z,1.20
2019-03-13T16:42:01.727Z,1.27
2019-03-13T16:44:33.115Z,1.43
2019-03-13T16:47:03.526Z,1.67
2019-03-13T16:49:39.062Z,1.73
2019-03-13T16:52:29.189Z,1.30
2019-03-13T16:55:01.785Z,1.60
2019-03-13T16:57:32.365Z,1.43
2019-03-13T17:00:03.688Z,1.40
2019-03-13T17:02:34.845Z,1.20
2019-03-13T17:05:07.191Z,1.73
2019-03-13T17:07:38.766Z,1.17
2019-03-13T17:10:12.857Z,1.67
2019-03-13T17:12:43.182Z,1.40
2019-03-13T17:15:18.773Z,1.30
2019-03-13T17:17:50.483Z,1.47
2019-03-13T17:20:26.026Z,1.20
2019-03-13T17:22:56.181Z,1.57
2019-03-13T17:25:26.765Z,1.60
2019-03-13T17:27:57.088Z,1.83
2019-03-13T17:30:30.179Z,1.47
2019-03-13T17:33:02.670Z,2.13
2019-03-13T17:35:33.290Z,1.63
2019-03-13T17:38:03.664Z,1.93
2019-03-13T17:40:34.987Z,1.77
2019-03-13T17:43:05.321Z,1.57
2019-03-13T17:45:36.132Z,1.50
2019-03-13T17:48:07.696Z,1.53
2019-03-13T17:50:38.940Z,1.80
2019-03-13T17:53:10.599Z,1.90
2019-03-13T17:55:43.402Z,1.97
2019-03-13T17:58:13.986Z,1.50
2019-03-13T18:00:47.635Z,1.73
2019-03-13T18:03:20.071Z,1.70
2019-03-13T18:05:53.362Z,1.93
2019-03-13T18:08:23.685Z,1.60
2019-03-13T18:10:55.939Z,1.60
2019-03-13T18:13:26.431Z,2.40
2019-03-13T18:15:57.032Z,1.37
2019-03-13T18:18:28.184Z,1.50
2019-03-13T18:20:58.605Z,1.60
2019-03-13T18:23:30.709Z,1.97
2019-03-13T18:26:01.479Z,1.50
2019-03-13T18:28:31.984Z,1.30
2019-03-13T18:31:02.513Z,1.47
2019-03-13T18:33:33.396Z,1.60
2019-03-13T18:36:03.622Z,1.57
2019-03-13T18:38:33.871Z,1.30
2019-03-13T18:41:06.691Z,1.83
2019-03-13T18:43:37.157Z,1.70
2019-03-13T18:46:07.495Z,1.43
2019-03-13T18:48:37.765Z,1.77
2019-03-13T18:51:09.144Z,1.47
2019-03-13T18:53:39.878Z,1.67
2019-03-13T18:56:12.288Z,1.63
2019-03-13T18:58:42.661Z,1.67
2019-03-13T19:01:12.976Z,1.63
2019-03-13T19:03:43.361Z,1.67
2019-03-13T19:06:15.145Z,1.30
2019-03-13T19:08:47.034Z,1.67
2019-03-13T19:11:17.361Z,1.90
2019-03-13T19:13:49.302Z,1.37
2019-03-13T19:16:19.539Z,1.40
2019-03-13T19:18:50.277Z,1.60
2019-03-13T19:21:21.023Z,2.43
2019-03-13T19:23:51.247Z,1.40
2019-03-13T19:26:22.575Z,1.80
2019-03-13T19:28:52.859Z,1.30
2019-03-13T19:31:23.499Z,1.40
2019-03-13T19:33:53.713Z,1.20
2019-03-13T19:36:24.053Z,1.33
2019-03-13T19:38:55.276Z,1.70
2019-03-13T19:41:25.678Z,2.00
2019-03-13T19:43:55.972Z,2.03
2019-03-13T19:46:26.200Z,1.90
2019-03-13T19:48:56.417Z,1.50
2019-03-13T19:51:26.677Z,1.57
2019-03-13T19:54:04.121Z,2.57
2019-03-13T19:56:35.225Z,1.67
2019-03-13T19:59:06.120Z,1.33
2019-03-13T20:01:43.028Z,1.77
2019-03-13T20:07:02.818Z,1.93
2019-03-13T20:09:34.297Z,1.83
2019-03-13T20:12:06.414Z,1.73
2019-03-13T20:14:36.845Z,1.73
2019-03-13T20:17:07.002Z,1.97
2019-03-13T20:19:37.198Z,1.33
2019-03-13T20:22:07.732Z,1.73
2019-03-13T20:24:41.288Z,1.30
2019-03-13T20:27:11.679Z,1.77
2019-03-13T20:29:43.760Z,1.50
2019-03-13T20:32:22.382Z,2.10
2019-03-13T20:34:48.054Z,1.63
2019-03-13T20:37:18.455Z,2.00
2019-03-13T20:39:48.725Z,1.50
2019-03-13T20:42:18.986Z,1.63
2019-03-13T20:44:49.253Z,1.63
2019-03-13T20:47:19.470Z,1.47
2019-03-13T20:49:49.766Z,2.00
2019-03-13T20:52:19.973Z,1.47
2019-03-13T20:54:51.686Z,1.60
2019-03-13T20:57:21.976Z,1.30
2019-03-13T20:59:53.843Z,1.50
2019-03-13T21:02:25.178Z,1.70
2019-03-13T21:04:59.743Z,1.60
2019-03-13T21:07:30.098Z,1.40
2019-03-13T21:10:00.584Z,1.60
2019-03-13T21:12:31.309Z,1.57
2019-03-13T21:15:02.856Z,1.73
2019-03-13T21:17:34.135Z,1.37
2019-03-13T21:20:05.008Z,1.40
2019-03-13T21:22:35.464Z,1.30
2019-03-13T21:25:06.362Z,1.40
2019-03-13T21:27:38.671Z,1.47
2019-03-13T21:30:15.080Z,1.63
2019-03-13T21:32:45.444Z,1.77
2019-03-13T21:35:15.968Z,1.50
2019-03-13T21:37:50.825Z,1.73
2019-03-13T21:40:21.277Z,1.30
2019-03-13T21:42:54.541Z,1.70
2019-03-13T21:45:24.014Z,2.20
2019-03-13T21:48:00.524Z,1.53
2019-03-13T21:50:32.081Z,1.77
2019-03-13T21:53:17.744Z,1.67
2019-03-13T21:55:48.051Z,1.53
2019-03-13T21:58:18.477Z,1.53
2019-03-13T22:00:50.455Z,1.40
2019-03-13T22:03:28.346Z,1.63
2019-03-13T22:05:52.899Z,1.40
2019-03-13T22:08:23.206Z,2.03
2019-03-13T22:10:53.816Z,1.67
2019-03-13T22:13:24.069Z,1.40
2019-03-13T22:15:54.295Z,1.40
2019-03-13T22:18:24.737Z,1.30
2019-03-13T22:20:54.980Z,1.30
2019-03-13T22:23:25.799Z,1.60
2019-03-13T22:25:56.129Z,1.73
2019-03-13T22:28:26.311Z,1.20
2019-03-13T22:30:56.577Z,1.57
2019-03-13T22:33:26.796Z,1.50
2019-03-13T22:35:57.078Z,1.43
2019-03-13T22:38:27.313Z,1.50
2019-03-13T22:40:57.557Z,1.67
2019-03-13T22:43:27.714Z,1.90
2019-03-13T22:45:58.714Z,2.13
2019-03-13T22:48:29.081Z,1.80
2019-03-13T22:51:02.149Z,1.57
2019-03-13T22:53:31.238Z,1.47
2019-03-13T22:56:01.438Z,1.63
2019-03-13T22:58:32.080Z,1.80
2019-03-13T23:01:08.509Z,2.00
2019-03-13T23:03:41.004Z,1.97
2019-03-13T23:06:11.456Z,1.70
2019-03-13T23:08:41.825Z,1.90
2019-03-13T23:11:12.336Z,1.67
2019-03-13T23:13:42.511Z,1.70
2019-03-13T23:16:13.194Z,1.33
2019-03-13T23:18:43.458Z,1.90
2019-03-13T23:21:13.721Z,1.40
2019-03-13T23:23:44.300Z,1.87
2019-03-13T23:26:14.548Z,1.57
2019-03-13T23:28:44.934Z,1.83
2019-03-13T23:31:15.264Z,1.40
2019-03-13T23:33:45.506Z,1.93
2019-03-13T23:36:15.765Z,1.50
2019-03-13T23:38:46.193Z,1.80
2019-03-13T23:41:16.504Z,1.77
2019-03-13T23:43:46.704Z,1.63
2019-03-13T23:46:16.884Z,1.90
2019-03-13T23:48:47.178Z,1.87
2019-03-13T23:51:17.470Z,1.60
2019-03-13T23:53:47.720Z,1.30
2019-03-13T23:56:17.970Z,2.00
2019-03-13T23:58:48.207Z,1.80
